ESSA Airport Information

Runway Information
Runway 01L Length 10830 ft width 148 ft
Elevation 98 ft Threshold 0 ft Heading 10
Runway 19R Length 10830 ft Width 148 ft
Elevation 118 ft Threshold 0 ft Heading 190
Runway 01R Length 8201 ft width 148 ft
Elevation 137 ft Threshold 0 ft Heading 10
Runway 19L Length 8201 ft Width 148 ft
Elevation 98 ft Threshold 0 ft Heading 190
Runway 08 Length 8202 ft width 148 ft
Elevation 108 ft Threshold 0 ft Heading 76
Runway 26 Length 8202 ft Width 148 ft
Elevation 124 ft Threshold 0 ft Heading 256
Airport Frequencies
Type APP Name STOCKHOLM Frequency 123.75 MHZ
Type ATIS Name ATIS Frequency 119 MHZ
Type CLD Name CLNC DEL Frequency 121.825 MHZ
Type GND Name GND Frequency 121.7 MHZ
Type PMSV Name MET OFFICE Frequency 122.6 MHZ
Type TWR Name TWR Frequency 118.5 MHZ
Airport Navaids
Type VOR-DME Name Arlanda Frequency 116000 KHZ
Type NDB Name Arlanda Frequency 352 KHZ
Type NDB Name Arlanda Frequency 360 KHZ
Type NDB Name Arlanda Frequency 404 KHZ
Type NDB Name Arlanda Frequency 370 KHZ
Airport Weather Information & NOTAM
ADDS - METARS form results

(1055 UTC 08 May 2021)
Data provider http://aviationweather.gov/metar/data/
 
METAR text: ESSA 081050Z 26008KT 230V320 9999 SCT064CB 11/M04 Q1008 TEMPO SHRA SCT060CB
Conditions at: ESSA (STOCKHOLM/ARLAND, SE) observed 1050 UTC 08 May 2021
Temperature: 11.0°C (52°F)
Dewpoint: -4.0°C (25°F) [RH = 35%]
Pressure (altimeter): 29.76 inches Hg (1008.0 mb)
Winds: from the W (260 degrees) at 9 MPH (8 knots; 4.1 m/s)
Visibility: 6 or more miles (10+ km)
Ceiling: at least 12,000 feet AGL
Clouds: scattered clouds at 6400 feet AGL
Weather: no significant weather observed at this time

METAR text: ESSA 081020Z 26010KT 240V310 CAVOK 10/M03 Q1008 TEMPO SCT060TCU
Conditions at: ESSA (STOCKHOLM/ARLAND, SE) observed 1020 UTC 08 May 2021
Temperature: 10.0°C (50°F)
Dewpoint: -3.0°C (27°F) [RH = 40%]
Pressure (altimeter): 29.76 inches Hg (1008.0 mb)
Winds: from the W (260 degrees) at 12 MPH (10 knots; 5.1 m/s)
Visibility: 6 or more miles (10+ km)
Ceiling: ceiling and visibility are OK
Clouds: unknown
Weather: no significant weather observed at this time

Forecast for: ESSA (STOCKHOLM/ARLAND, SE)
Text: TAF ESSA 080530Z 0806/0906 25007KT CAVOK
Forecast period: 0600 UTC 08 May 2021 to 0600 UTC 09 May 2021
Forecast type: FROM: standard forecast or significant change
Winds: from the WSW (250 degrees) at 8 MPH (7 knots; 3.6 m/s)
Visibility: 6 or more miles (10+ km)
Ceiling: unknown
Clouds: missing
Weather: NSW  (no significant weather)
Text: PROB40 0810/0819 SHRA BKN040CB
Forecast period: 1000 to 1900 UTC 08 May 2021
Forecast type: PROBABLE: 40 percent likelihood of the following during this time
Visibility: missing
Ceiling: 4000 feet AGL
Clouds: broken clouds at 4000 feet AGL
Weather: SHRA  (rain showers)